createdAt,value
2018-09-05T00:02:22.138Z,100682.14
2018-09-05T00:07:19.976Z,100679.52
2018-09-05T00:12:17.443Z,100672.69
2018-09-05T00:17:14.864Z,100678.98
2018-09-05T00:22:12.300Z,100671.25
2018-09-05T00:27:09.707Z,100669.67
2018-09-05T00:32:07.107Z,100672.92
2018-09-05T00:37:05.207Z,100670.69
2018-09-05T00:42:02.640Z,100672.64
2018-09-05T00:47:00.060Z,100664.78
2018-09-05T00:51:57.483Z,100665.81
2018-09-05T00:56:54.973Z,100673.04
2018-09-05T01:01:52.367Z,100669.11
2018-09-05T01:06:49.847Z,100671.08
2018-09-05T01:11:47.219Z,100669.70
2018-09-05T01:16:44.652Z,100674.77
2018-09-05T01:21:42.076Z,100678.86
2018-09-05T01:26:39.527Z,100671.77
2018-09-05T01:31:36.993Z,100664.83
2018-09-05T01:36:34.423Z,100665.95
2018-09-05T01:41:31.823Z,100653.33
2018-09-05T01:46:29.244Z,100657.37
2018-09-05T01:51:31.252Z,100655.77
2018-09-05T01:56:28.673Z,100655.08
2018-09-05T02:01:26.067Z,100658.05
2018-09-05T02:06:23.580Z,100649.14
2018-09-05T02:11:21.058Z,100655.70
2018-09-05T02:16:18.529Z,100656.59
2018-09-05T02:21:15.928Z,100666.08
2018-09-05T02:26:13.303Z,100660.95
2018-09-05T02:31:11.262Z,100655.94
2018-09-05T02:36:08.676Z,100656.95
2018-09-05T02:41:06.127Z,100649.31
2018-09-05T02:46:03.586Z,100655.20
2018-09-05T02:51:01.103Z,100653.17
2018-09-05T02:56:01.860Z,100653.67
2018-09-05T03:00:59.277Z,100653.14
2018-09-05T03:05:56.839Z,100658.09
2018-09-05T03:10:54.257Z,100653.47
2018-09-05T03:15:51.767Z,100657.41
2018-09-05T03:20:49.176Z,100654.30
2018-09-05T03:25:46.590Z,100653.33
2018-09-05T03:30:43.979Z,100656.95
2018-09-05T03:35:41.378Z,100655.42
2018-09-05T03:40:38.812Z,100652.37
2018-09-05T03:45:36.805Z,100652.47
2018-09-05T03:50:34.220Z,100649.47
2018-09-05T03:55:31.631Z,100655.00
2018-09-05T04:00:33.458Z,100658.28
2018-09-05T04:05:31.321Z,100664.69
2018-09-05T04:10:28.789Z,100667.59
2018-09-05T04:15:30.487Z,100668.47
2018-09-05T04:20:28.186Z,100663.84
2018-09-05T04:25:25.612Z,100664.25
2018-09-05T04:30:23.093Z,100670.34
2018-09-05T04:35:20.549Z,100672.52
2018-09-05T04:40:19.001Z,100672.92
2018-09-05T04:45:16.592Z,100675.82
2018-09-05T04:50:14.013Z,100674.19
2018-09-05T04:55:11.428Z,100674.36
2018-09-05T05:00:08.877Z,100675.17
2018-09-05T05:05:06.424Z,100681.94
2018-09-05T05:10:05.459Z,100680.89
2018-09-05T05:15:02.872Z,100685.86
2018-09-05T05:20:01.247Z,100681.59
2018-09-05T05:24:58.656Z,100682.30
2018-09-05T05:29:57.291Z,100673.86
2018-09-05T05:34:54.682Z,100673.50
2018-09-05T05:40:04.273Z,100673.72
2018-09-05T05:45:02.036Z,100674.20
2018-09-05T05:49:59.480Z,100680.97
2018-09-05T05:54:56.911Z,100683.22
2018-09-05T05:59:54.335Z,100684.69
2018-09-05T06:04:52.003Z,100704.06
2018-09-05T06:09:50.462Z,100697.36
2018-09-05T06:14:47.871Z,100703.72
2018-09-05T06:19:45.499Z,100713.86
2018-09-05T06:24:42.976Z,100721.11
2018-09-05T06:29:40.413Z,100721.53
2018-09-05T06:34:37.819Z,100723.52
2018-09-05T06:39:38.291Z,100719.47
2018-09-05T06:44:35.801Z,100721.47
2018-09-05T06:49:33.724Z,100723.58
2018-09-05T06:54:31.152Z,100721.45
2018-09-05T06:59:28.586Z,100718.13
2018-09-05T07:04:26.006Z,100714.74
2018-09-05T07:09:29.555Z,100713.58
2018-09-05T07:14:27.235Z,100723.30
2018-09-05T07:19:24.707Z,100715.70
2018-09-05T07:24:22.191Z,100719.98
2018-09-05T07:29:19.590Z,100717.48
2018-09-05T07:34:17.035Z,100713.98
2018-09-05T07:39:22.717Z,100717.83
2018-09-05T07:44:20.272Z,100725.65
2018-09-05T07:49:17.686Z,100724.30
2018-09-05T07:54:16.577Z,100723.41
2018-09-05T07:59:14.171Z,100719.22
2018-09-05T08:04:11.650Z,100726.25
2018-09-05T08:09:12.793Z,100727.64
2018-09-05T08:14:10.268Z,100724.41
2018-09-05T08:19:07.713Z,100731.66
2018-09-05T08:24:05.153Z,100733.86
2018-09-05T08:29:02.588Z,100731.94
2018-09-05T08:34:00.019Z,100725.28
2018-09-05T08:38:57.837Z,100733.53
2018-09-05T08:43:55.335Z,100723.30
2018-09-05T08:48:52.601Z,100726.89
2018-09-05T08:53:50.341Z,100724.66
2018-09-05T08:58:47.781Z,100715.66
2018-09-05T09:03:45.431Z,100716.16
2018-09-05T09:08:42.887Z,100711.48
2018-09-05T09:13:40.355Z,100710.98
2018-09-05T09:18:37.829Z,100705.92
2018-09-05T09:23:35.267Z,100702.97
2018-09-05T09:28:32.694Z,100699.48
2018-09-05T09:33:30.120Z,100701.11
2018-09-05T09:38:27.559Z,100698.09
2018-09-05T09:43:25.008Z,100687.35
2018-09-05T09:48:22.411Z,100691.11
2018-09-05T09:53:19.797Z,100683.02
2018-09-05T09:58:17.387Z,100680.16
2018-09-05T10:03:20.644Z,100670.70
2018-09-05T10:08:23.675Z,100675.61
2018-09-05T10:13:26.575Z,100664.88
2018-09-05T10:18:26.934Z,100666.69
2018-09-05T10:23:24.671Z,100664.20
2018-09-05T10:28:22.133Z,100659.25
2018-09-05T10:33:19.555Z,100645.55
2018-09-05T10:38:16.967Z,100648.69
2018-09-05T10:43:14.391Z,100644.02
2018-09-05T10:48:13.260Z,100635.11
2018-09-05T10:53:10.749Z,100637.05
2018-09-05T10:58:08.230Z,100628.88
2018-09-05T11:03:05.766Z,100625.31
2018-09-05T11:08:03.242Z,100624.47
2018-09-05T11:13:00.702Z,100630.00
2018-09-05T11:17:58.199Z,100622.25
2018-09-05T11:22:55.616Z,100623.41
2018-09-05T11:27:53.071Z,100620.64
2018-09-05T11:32:50.498Z,100612.69
2018-09-05T11:37:48.013Z,100609.78
2018-09-05T11:42:45.427Z,100610.03
2018-09-05T11:47:42.834Z,100600.96
2018-09-05T11:52:40.301Z,100602.84
2018-09-05T11:57:37.705Z,100589.36
2018-09-05T12:02:35.182Z,100586.20
2018-09-05T12:07:32.615Z,100584.99
2018-09-05T12:12:30.126Z,100578.81
2018-09-05T12:17:28.405Z,100577.54
2018-09-05T12:22:25.900Z,100574.80
2018-09-05T12:27:24.322Z,100575.34
2018-09-05T12:32:21.764Z,100570.13
2018-09-05T12:37:19.190Z,100563.23
2018-09-05T12:42:18.917Z,100566.70
2018-09-05T12:47:17.030Z,100561.66
2018-09-05T12:52:14.507Z,100550.45
2018-09-05T12:57:12.731Z,100546.25
2018-09-05T13:02:10.172Z,100530.91
2018-09-05T13:07:07.755Z,100535.57
2018-09-05T13:12:05.422Z,100530.45
2018-09-05T13:17:02.853Z,100535.05
2018-09-05T13:22:00.286Z,100538.31
2018-09-05T13:26:57.739Z,100526.70
2018-09-05T13:31:55.610Z,100524.30
2018-09-05T13:36:53.047Z,100515.41
2018-09-05T13:41:50.536Z,100509.41
2018-09-05T13:46:48.193Z,100503.34
2018-09-05T13:51:51.211Z,100497.70
2018-09-05T13:56:48.666Z,100502.30
2018-09-05T14:01:46.085Z,100500.78
2018-09-05T14:06:43.510Z,100498.02
2018-09-05T14:11:41.091Z,100506.84
2018-09-05T14:16:38.528Z,100496.70
2018-09-05T14:21:35.998Z,100496.03
2018-09-05T14:26:33.454Z,100490.73
2018-09-05T14:31:30.948Z,100490.17
2018-09-05T14:36:28.483Z,100492.63
2018-09-05T14:41:25.924Z,100489.61
2018-09-05T14:46:23.375Z,100482.27
2018-09-05T14:51:20.816Z,100484.61
2018-09-05T14:56:18.243Z,100475.34
2018-09-05T15:01:15.769Z,100467.19
2018-09-05T15:06:13.204Z,100460.13
2018-09-05T15:11:10.678Z,100458.78
2018-09-05T15:16:08.109Z,100457.06
2018-09-05T15:21:05.931Z,100452.59
2018-09-05T15:26:03.571Z,100450.20
2018-09-05T15:31:01.011Z,100454.41
2018-09-05T15:36:05.047Z,100446.61
2018-09-05T15:41:03.040Z,100440.69
2018-09-05T15:46:00.589Z,100444.59
2018-09-05T15:50:58.148Z,100435.75
2018-09-05T15:55:56.780Z,100439.06
2018-09-05T16:00:54.191Z,100442.98
2018-09-05T16:05:51.635Z,100443.80
2018-09-05T16:10:51.509Z,100431.36
2018-09-05T16:15:52.726Z,100433.36
2018-09-05T16:20:50.227Z,100425.69
2018-09-05T16:25:47.721Z,100432.14
2018-09-05T16:30:45.187Z,100427.96
2018-09-05T16:35:42.651Z,100426.34
2018-09-05T16:40:40.189Z,100423.61
2018-09-05T16:45:37.715Z,100431.66
2018-09-05T16:50:35.185Z,100413.75
2018-09-05T16:55:33.472Z,100413.70
2018-09-05T17:00:31.847Z,100409.48
2018-09-05T17:05:29.428Z,100418.97
2018-09-05T17:10:29.428Z,100410.77
2018-09-05T17:15:26.883Z,100418.44
2018-09-05T17:20:25.990Z,100423.00
2018-09-05T17:25:23.499Z,100423.70
2018-09-05T17:30:26.424Z,100429.22
2018-09-05T17:35:23.966Z,100432.11
2018-09-05T17:40:24.816Z,100428.27
2018-09-05T17:45:24.533Z,100430.17
2018-09-05T17:50:22.055Z,100439.31
2018-09-05T17:55:19.523Z,100438.18
2018-09-05T18:00:16.959Z,100445.56
2018-09-05T18:05:14.399Z,100436.38
2018-09-05T18:10:12.486Z,100445.27
2018-09-05T18:15:09.926Z,100446.67
2018-09-05T18:20:07.415Z,100446.75
2018-09-05T18:25:05.120Z,100449.27
2018-09-05T18:30:02.904Z,100447.98
2018-09-05T18:35:00.307Z,100457.10
2018-09-05T18:39:58.760Z,100465.25
2018-09-05T18:44:56.170Z,100463.75
2018-09-05T18:49:53.627Z,100470.30
2018-09-05T18:54:51.038Z,100467.05
2018-09-05T18:59:48.467Z,100465.80
2018-09-05T19:04:45.947Z,100458.27
2018-09-05T19:09:46.427Z,100458.88
2018-09-05T19:14:43.895Z,100455.91
2018-09-05T19:19:41.291Z,100453.49
2018-09-05T19:24:38.713Z,100451.38
2018-09-05T19:29:36.123Z,100448.41
2018-09-05T19:34:33.521Z,100442.75
2018-09-05T19:39:41.263Z,100441.72
2018-09-05T19:44:38.731Z,100449.44
2018-09-05T19:49:36.118Z,100447.28
2018-09-05T19:54:33.515Z,100442.74
2018-09-05T19:59:30.919Z,100436.84
2018-09-05T20:04:28.332Z,100442.03
2018-09-05T20:09:30.427Z,100435.70
2018-09-05T20:14:28.014Z,100436.15
2018-09-05T20:19:25.475Z,100433.70
2018-09-05T20:24:22.996Z,100433.00
2018-09-05T20:29:20.395Z,100435.91
2018-09-05T20:34:20.343Z,100436.69
2018-09-05T20:39:21.908Z,100428.38
2018-09-05T20:44:23.853Z,100426.92
2018-09-05T20:49:24.840Z,100425.59
2018-09-05T20:54:24.967Z,100422.12
2018-09-05T20:59:31.210Z,100425.20
2018-09-05T21:04:33.533Z,100426.45
2018-09-05T21:09:38.727Z,100417.33
2018-09-05T21:14:43.897Z,100419.16
2018-09-05T21:19:43.367Z,100417.53
2018-09-05T21:24:40.819Z,100411.86
2018-09-05T21:29:38.252Z,100409.84
2018-09-05T21:34:35.751Z,100413.11
2018-09-05T21:39:43.455Z,100412.88
2018-09-05T21:44:40.930Z,100415.94
2018-09-05T21:49:38.315Z,100418.55
2018-09-05T21:54:35.827Z,100412.19
2018-09-05T21:59:33.272Z,100413.50
2018-09-05T22:04:30.691Z,100419.17
2018-09-05T22:09:32.824Z,100423.06
2018-09-05T22:14:30.302Z,100416.31
2018-09-05T22:19:27.744Z,100412.96
2018-09-05T22:24:25.178Z,100408.42
2018-09-05T22:29:22.664Z,100408.91
2018-09-05T22:34:20.088Z,100406.75
2018-09-05T22:39:32.979Z,100414.83
2018-09-05T22:44:41.820Z,100410.35
2018-09-05T22:49:56.052Z,100409.53
2018-09-05T22:55:10.236Z,100402.95
2018-09-05T23:00:28.660Z,100398.55
2018-09-05T23:06:24.013Z,100397.98
2018-09-05T23:12:36.693Z,100383.80
2018-09-05T23:17:45.487Z,100376.73
2018-09-05T23:22:54.143Z,100369.76
2018-09-05T23:27:51.558Z,100366.30
2018-09-05T23:32:48.981Z,100358.31
2018-09-05T23:37:46.394Z,100352.95
2018-09-05T23:42:43.804Z,100353.23
2018-09-05T23:47:41.232Z,100344.53
2018-09-05T23:52:38.639Z,100339.68
2018-09-05T23:57:37.939Z,100339.36
